Time;durP1;ratioP1;P1;durP2;ratioP2;P2;SDS_P1;SDS_P2;PMS_P1;PMS_P2;Temp;Humidity;BMP_temperature;BMP_pressure;BME280_temperature;BME280_humidity;BME280_pressure;Samples;Min_cycle;Max_cycle;Signal;HPM_P1;HPM_P2
2022/05/22 00:00:53;;;;;;;1.50;1.17;;;;;;;;;;5049975;28;20048;-79
2022/05/22 00:03:27;;;;;;;1.33;1.23;;;;;;;;;;5057937;28;20043;-78
2022/05/22 00:06:02;;;;;;;1.40;1.30;;;;;;;;;;5046187;28;20152;-79
2022/05/22 00:08:38;;;;;;;1.30;1.20;;;;;;;;;;5042586;28;20718;-79
2022/05/22 00:11:34;;;;;;;1.25;1.17;;;;;;;;;;5053665;28;20912;-79
2022/05/22 00:14:16;;;;;;;1.88;1.30;;;;;;;;;;5020887;28;20044;-78
2022/05/22 00:17:02;;;;;;;1.38;1.20;;;;;;;;;;5068970;28;20391;-79
2022/05/22 00:19:36;;;;;;;2.10;1.20;;;;;;;;;;5071373;28;20077;-79
2022/05/22 00:23:08;;;;;;;1.17;1.17;;;;;;;;;;5054013;28;20044;-79
2022/05/22 00:26:04;;;;;;;;;;;;;;;;;;;;;
2022/05/22 00:28:56;;;;;;;1.63;1.23;;;;;;;;;;5053298;28;20048;-79
2022/05/22 00:32:13;;;;;;;2.15;1.40;;;;;;;;;;4991726;28;20056;-79
2022/05/22 00:34:58;;;;;;;5.38;1.35;;;;;;;;;;4993910;28;20224;-79
2022/05/22 00:37:47;;;;;;;1.23;1.13;;;;;;;;;;5010906;28;20134;-79
2022/05/22 00:40:49;;;;;;;1.25;1.10;;;;;;;;;;5009655;28;20061;-79
2022/05/22 00:44:30;;;;;;;1.98;1.20;;;;;;;;;;4994372;28;20580;-79
2022/05/22 00:47:50;;;;;;;2.03;1.40;;;;;;;;;;4996307;28;20037;-79
2022/05/22 00:51:16;;;;;;;1.40;1.15;;;;;;;;;;4996661;28;20060;-79
2022/05/22 00:53:53;;;;;;;3.22;1.30;;;;;;;;;;5009223;28;20053;-79
2022/05/22 00:57:21;;;;;;;1.27;1.17;;;;;;;;;;4961209;28;20082;-79
2022/05/22 01:04:27;;;;;;;1.45;1.20;;;;;;;;;;5059581;28;20086;-79
2022/05/22 01:08:05;;;;;;;3.28;1.30;;;;;;;;;;5052307;28;20095;-79
2022/05/22 01:10:59;;;;;;;1.27;1.27;;;;;;;;;;5073449;28;20068;-79
2022/05/22 01:13:48;;;;;;;1.30;1.20;;;;;;;;;;5039859;28;20044;-79
2022/05/22 01:17:06;;;;;;;1.38;1.27;;;;;;;;;;5052599;28;20040;-79
2022/05/22 01:20:02;;;;;;;3.72;1.20;;;;;;;;;;5054471;28;20051;-79
2022/05/22 01:26:55;;;;;;;1.92;1.40;;;;;;;;;;5045813;28;20075;-80
2022/05/22 01:30:23;;;;;;;1.40;1.30;;;;;;;;;;5050667;28;20044;-78
2022/05/22 01:33:07;;;;;;;1.60;1.50;;;;;;;;;;5080934;28;20352;-79
2022/05/22 01:35:54;;;;;;;1.30;1.30;;;;;;;;;;5065384;28;20040;-79
2022/05/22 01:38:42;;;;;;;1.98;1.45;;;;;;;;;;5068799;28;20072;-79
2022/05/22 01:41:22;;;;;;;2.42;1.40;;;;;;;;;;5075499;28;20451;-79
2022/05/22 01:44:10;;;;;;;2.13;1.48;;;;;;;;;;5054493;28;20415;-79
2022/05/22 01:46:57;;;;;;;2.05;1.33;;;;;;;;;;5068834;22;20144;-79
2022/05/22 01:49:27;;;;;;;3.60;1.40;;;;;;;;;;5069677;28;20036;-78
2022/05/22 01:51:55;;;;;;;3.33;1.50;;;;;;;;;;5071650;28;20538;-76
2022/05/22 01:54:22;;;;;;;1.30;1.20;;;;;;;;;;5090197;28;20450;-76
2022/05/22 01:56:50;;;;;;;2.10;1.50;;;;;;;;;;5089205;28;20066;-77
2022/05/22 01:59:17;;;;;;;2.00;1.30;;;;;;;;;;5074528;28;20044;-77
2022/05/22 02:01:51;;;;;;;1.65;1.52;;;;;;;;;;5072455;28;20837;-76
2022/05/22 02:04:19;;;;;;;3.50;1.50;;;;;;;;;;5075154;28;20392;-78
2022/05/22 02:09:34;;;;;;;2.03;1.35;;;;;;;;;;5074378;28;20066;-78
2022/05/22 02:12:02;;;;;;;1.98;1.40;;;;;;;;;;5072996;28;20062;-78
2022/05/22 02:14:30;;;;;;;3.08;1.42;;;;;;;;;;5072100;28;20047;-78
2022/05/22 02:17:03;;;;;;;1.63;1.38;;;;;;;;;;5071168;28;20112;-77
2022/05/22 02:19:36;;;;;;;1.95;1.55;;;;;;;;;;5091015;28;20056;-75
2022/05/22 02:22:04;;;;;;;1.55;1.45;;;;;;;;;;5069094;28;20090;-75
2022/05/22 02:24:32;;;;;;;1.67;1.58;;;;;;;;;;5054323;28;20510;-77
2022/05/22 02:27:11;;;;;;;3.40;1.70;;;;;;;;;;5071477;28;20132;-78
2022/05/22 02:29:39;;;;;;;1.85;1.50;;;;;;;;;;5075230;28;20551;-77
2022/05/22 02:32:07;;;;;;;1.58;1.48;;;;;;;;;;5073770;28;20036;-76
2022/05/22 02:34:35;;;;;;;1.65;1.55;;;;;;;;;;5074085;28;20044;-77
2022/05/22 02:37:03;;;;;;;1.45;1.35;;;;;;;;;;5088937;28;20097;-75
2022/05/22 02:39:31;;;;;;;1.65;1.50;;;;;;;;;;5071304;28;20499;-77
2022/05/22 02:42:05;;;;;;;1.77;1.67;;;;;;;;;;5051543;28;20326;-77
2022/05/22 02:44:32;;;;;;;3.00;1.50;;;;;;;;;;5070301;28;20514;-77
2022/05/22 02:47:00;;;;;;;3.53;1.77;;;;;;;;;;5068906;28;20047;-77
2022/05/22 02:49:27;;;;;;;2.17;1.70;;;;;;;;;;5088664;28;20040;-78
2022/05/22 02:51:55;;;;;;;3.33;1.60;;;;;;;;;;5072816;28;20423;-78
2022/05/22 02:54:24;;;;;;;2.92;1.52;;;;;;;;;;5073516;28;20044;-77
2022/05/22 02:56:54;;;;;;;1.60;1.50;;;;;;;;;;5070088;28;20049;-77
2022/05/22 02:59:35;;;;;;;1.70;1.60;;;;;;;;;;5056096;28;20071;-78
2022/05/22 03:02:11;;;;;;;1.58;1.48;;;;;;;;;;5068554;28;20090;-78
2022/05/22 03:04:39;;;;;;;1.52;1.50;;;;;;;;;;5073015;28;20098;-76
2022/05/22 03:07:10;;;;;;;2.53;1.50;;;;;;;;;;5056708;28;20051;-77
2022/05/22 03:09:39;;;;;;;1.73;1.63;;;;;;;;;;5055837;28;20040;-77
2022/05/22 03:12:12;;;;;;;1.25;1.20;;;;;;;;;;5064064;28;20045;-76
2022/05/22 03:14:46;;;;;;;5.07;1.77;;;;;;;;;;5068602;28;20047;-78
2022/05/22 03:17:14;;;;;;;2.45;1.70;;;;;;;;;;5067588;28;20054;-77
2022/05/22 03:19:55;;;;;;;;;;;;;;;;;;5050952;28;20110;-76
2022/05/22 03:22:23;;;;;;;1.80;1.70;;;;;;;;;;5089276;28;19924;-78
2022/05/22 03:24:51;;;;;;;2.90;1.73;;;;;;;;;;5060369;28;20044;-77
2022/05/22 03:27:20;;;;;;;1.58;1.50;;;;;;;;;;5051322;28;20048;-77
2022/05/22 03:29:50;;;;;;;1.63;1.52;;;;;;;;;;5060120;28;20114;-77
2022/05/22 03:32:18;;;;;;;2.08;1.80;;;;;;;;;;5048278;28;20048;-77
2022/05/22 03:34:48;;;;;;;3.88;1.67;;;;;;;;;;5054127;28;20499;-77
2022/05/22 03:37:15;;;;;;;1.55;1.50;;;;;;;;;;5090263;28;20410;-77
2022/05/22 03:39:43;;;;;;;4.68;2.10;;;;;;;;;;5071024;28;20150;-77
2022/05/22 03:42:11;;;;;;;6.68;2.05;;;;;;;;;;5070728;28;20052;-77
2022/05/22 03:44:39;;;;;;;1.80;1.70;;;;;;;;;;5072013;28;20101;-77
2022/05/22 03:47:07;;;;;;;1.85;1.67;;;;;;;;;;5047913;28;20058;-75
2022/05/22 03:49:51;;;;;;;2.65;1.60;;;;;;;;;;5068510;28;20475;-77
2022/05/22 03:52:19;;;;;;;2.80;1.60;;;;;;;;;;5072638;28;20043;-75
2022/05/22 03:54:47;;;;;;;1.80;1.70;;;;;;;;;;5074160;28;20600;-77
2022/05/22 03:57:15;;;;;;;2.65;1.75;;;;;;;;;;5074503;28;20075;-76
2022/05/22 03:59:43;;;;;;;1.60;1.50;;;;;;;;;;5059676;28;20829;-78
2022/05/22 04:02:11;;;;;;;1.98;1.80;;;;;;;;;;5067359;28;20055;-77
2022/05/22 04:04:40;;;;;;;6.05;1.75;;;;;;;;;;5056941;28;20040;-78
2022/05/22 04:07:19;;;;;;;2.80;1.80;;;;;;;;;;5068744;28;20569;-78
2022/05/22 04:09:48;;;;;;;1.83;1.73;;;;;;;;;;5071665;28;20059;-76
2022/05/22 04:12:21;;;;;;;1.70;1.60;;;;;;;;;;5069401;28;20174;-77
2022/05/22 04:14:54;;;;;;;1.90;1.80;;;;;;;;;;5056095;28;20097;-77
2022/05/22 04:17:22;;;;;;;2.50;1.77;;;;;;;;;;5087759;28;20573;-78
2022/05/22 04:19:50;;;;;;;1.88;1.77;;;;;;;;;;5068638;28;20063;-78
2022/05/22 04:22:19;;;;;;;1.88;1.77;;;;;;;;;;5050299;28;20403;-78
2022/05/22 04:27:37;;;;;;;1.80;1.70;;;;;;;;;;5060761;28;20044;-77
2022/05/22 04:30:07;;;;;;;1.70;1.60;;;;;;;;;;5068119;28;20071;-77
2022/05/22 04:32:47;;;;;;;3.33;2.22;;;;;;;;;;5060912;28;20121;-76
2022/05/22 04:35:15;;;;;;;1.83;1.73;;;;;;;;;;5071032;28;20032;-78
2022/05/22 04:37:44;;;;;;;2.45;2.10;;;;;;;;;;5053944;28;20672;-76
2022/05/22 04:40:13;;;;;;;6.35;2.17;;;;;;;;;;5055210;28;20484;-78
2022/05/22 04:42:41;;;;;;;1.55;1.45;;;;;;;;;;5065463;28;20393;-78
2022/05/22 04:45:10;;;;;;;5.47;2.05;;;;;;;;;;5068649;28;20123;-76
2022/05/22 04:47:45;;;;;;;2.10;2.00;;;;;;;;;;5059679;28;20048;-78
2022/05/22 04:50:16;;;;;;;1.90;1.80;;;;;;;;;;5083023;28;20452;-78
2022/05/22 04:53:22;;;;;;;2.15;1.95;;;;;;;;;;5071904;28;20036;-78
2022/05/22 04:56:15;;;;;;;3.13;2.15;;;;;;;;;;5051441;28;20060;-78
2022/05/22 04:58:50;;;;;;;2.08;1.83;;;;;;;;;;5071376;28;20032;-78
2022/05/22 05:01:18;;;;;;;2.28;2.08;;;;;;;;;;5041415;28;20122;-78
2022/05/22 05:04:03;;;;;;;2.17;1.75;;;;;;;;;;5062490;28;20048;-76
2022/05/22 05:06:45;;;;;;;2.47;2.22;;;;;;;;;;5064081;28;20139;-78
2022/05/22 05:09:32;;;;;;;3.22;2.33;;;;;;;;;;5087381;28;20064;-79
2022/05/22 05:12:02;;;;;;;2.45;2.00;;;;;;;;;;5076902;28;20043;-76
2022/05/22 05:14:30;;;;;;;3.05;2.40;;;;;;;;;;5079091;28;20040;-77
2022/05/22 05:16:58;;;;;;;2.70;2.20;;;;;;;;;;5071925;28;20064;-76
2022/05/22 05:19:26;;;;;;;2.50;2.30;;;;;;;;;;5050766;28;20073;-76
2022/05/22 05:21:56;;;;;;;2.38;2.17;;;;;;;;;;5075797;28;20043;-78
2022/05/22 05:24:23;;;;;;;2.20;2.10;;;;;;;;;;5094335;28;20054;-78
2022/05/22 05:26:54;;;;;;;2.40;2.20;;;;;;;;;;5071492;28;20052;-78
2022/05/22 05:29:49;;;;;;;3.88;2.20;;;;;;;;;;5073333;28;20044;-76
2022/05/22 05:32:19;;;;;;;2.10;2.00;;;;;;;;;;5056147;28;20053;-78
2022/05/22 05:34:47;;;;;;;3.13;2.42;;;;;;;;;;5048087;28;20162;-78
2022/05/22 05:37:22;;;;;;;3.38;2.03;;;;;;;;;;5075461;28;20098;-75
2022/05/22 05:39:59;;;;;;;2.05;1.92;;;;;;;;;;5058505;28;20066;-77
2022/05/22 05:42:36;;;;;;;2.92;2.20;;;;;;;;;;5056086;28;20090;-77
2022/05/22 05:45:06;;;;;;;3.60;2.00;;;;;;;;;;5073075;28;20105;-78
2022/05/22 05:47:47;;;;;;;5.43;2.13;;;;;;;;;;5071306;28;20438;-75
2022/05/22 05:50:22;;;;;;;2.20;1.90;;;;;;;;;;5053726;28;20528;-78
2022/05/22 05:52:56;;;;;;;2.03;1.92;;;;;;;;;;5066561;28;20036;-77
2022/05/22 05:55:43;;;;;;;2.03;1.92;;;;;;;;;;5075075;28;20034;-76
2022/05/22 05:58:54;;;;;;;2.20;2.00;;;;;;;;;;5072955;28;20052;-77
2022/05/22 06:01:33;;;;;;;4.50;2.50;;;;;;;;;;5060428;28;20470;-78
2022/05/22 06:04:01;;;;;;;2.40;2.17;;;;;;;;;;5071192;28;20052;-77
2022/05/22 06:06:29;;;;;;;2.35;2.20;;;;;;;;;;5088547;28;20538;-76
2022/05/22 06:08:58;;;;;;;3.38;2.20;;;;;;;;;;5079453;28;20126;-75
2022/05/22 06:11:28;;;;;;;2.65;2.47;;;;;;;;;;5060124;28;20036;-78
2022/05/22 06:14:00;;;;;;;2.35;2.10;;;;;;;;;;5068959;28;20032;-77
2022/05/22 06:16:28;;;;;;;2.30;2.20;;;;;;;;;;5065890;28;20047;-77
2022/05/22 06:19:00;;;;;;;2.60;2.38;;;;;;;;;;5063755;28;20051;-78
2022/05/22 06:21:28;;;;;;;2.88;2.00;;;;;;;;;;5052195;28;20092;-77
2022/05/22 06:23:56;;;;;;;2.60;2.20;;;;;;;;;;5054150;28;20048;-76
2022/05/22 06:26:42;;;;;;;2.47;2.00;;;;;;;;;;5082708;28;20644;-77
2022/05/22 06:29:30;;;;;;;2.20;2.05;;;;;;;;;;5085482;28;20058;-76
2022/05/22 06:32:27;;;;;;;3.45;2.20;;;;;;;;;;4981645;28;20144;-76
2022/05/22 06:35:17;;;;;;;2.35;1.92;;;;;;;;;;5036217;28;20500;-76
2022/05/22 06:37:56;;;;;;;2.70;2.40;;;;;;;;;;5055375;28;20408;-75
2022/05/22 06:40:42;;;;;;;4.38;2.00;;;;;;;;;;5077455;28;20036;-76
2022/05/22 06:43:42;;;;;;;2.25;2.13;;;;;;;;;;5066061;28;20044;-77
2022/05/22 06:46:31;;;;;;;2.05;1.85;;;;;;;;;;5039246;28;20080;-76
2022/05/22 06:49:28;;;;;;;2.88;1.80;;;;;;;;;;5062771;28;20056;-77
2022/05/22 06:52:04;;;;;;;4.18;1.70;;;;;;;;;;5069192;28;20123;-77
2022/05/22 06:54:50;;;;;;;1.70;1.60;;;;;;;;;;5060611;28;20139;-78
2022/05/22 06:57:28;;;;;;;2.35;2.00;;;;;;;;;;5066295;28;20036;-78
2022/05/22 07:00:18;;;;;;;2.25;2.05;;;;;;;;;;5081078;28;20068;-76
2022/05/22 07:03:04;;;;;;;4.80;2.50;;;;;;;;;;5082728;28;20052;-78
2022/05/22 07:05:58;;;;;;;5.18;2.00;;;;;;;;;;5060676;28;20044;-77
2022/05/22 07:08:49;;;;;;;4.88;2.15;;;;;;;;;;5059281;28;20047;-79
2022/05/22 07:11:38;;;;;;;7.30;1.90;;;;;;;;;;5079452;28;20032;-78
2022/05/22 07:14:30;;;;;;;4.60;1.67;;;;;;;;;;5060983;28;20036;-77
2022/05/22 07:17:08;;;;;;;3.40;1.70;;;;;;;;;;5064254;28;20096;-76
2022/05/22 07:19:56;;;;;;;1.65;1.45;;;;;;;;;;5079279;28;20048;-77
2022/05/22 07:22:54;;;;;;;2.70;1.52;;;;;;;;;;5101653;28;20156;-76
2022/05/22 07:25:57;;;;;;;3.97;1.50;;;;;;;;;;5072896;28;20051;-78
2022/05/22 07:28:51;;;;;;;3.13;1.23;;;;;;;;;;5036408;28;20566;-78
2022/05/22 07:31:40;;;;;;;1.55;1.45;;;;;;;;;;5087695;28;20032;-79
2022/05/22 07:34:26;;;;;;;3.65;2.00;;;;;;;;;;5066727;28;20484;-77
2022/05/22 07:37:14;;;;;;;2.22;1.50;;;;;;;;;;5046232;28;20271;-78
2022/05/22 07:39:42;;;;;;;2.40;1.70;;;;;;;;;;5058954;28;20039;-78
2022/05/22 07:42:28;;;;;;;2.45;1.55;;;;;;;;;;5068716;28;20591;-76
2022/05/22 07:45:16;;;;;;;2.53;1.60;;;;;;;;;;5034677;28;20491;-77
2022/05/22 07:48:23;;;;;;;1.25;1.15;;;;;;;;;;5119325;22;20057;-85
2022/05/22 07:52:05;;;;;;;2.08;1.50;;;;;;;;;;4986672;22;20050;-79
2022/05/22 07:55:14;;;;;;;2.08;1.23;;;;;;;;;;5070846;28;20036;-80
2022/05/22 07:58:08;;;;;;;3.33;1.40;;;;;;;;;;5033658;28;20041;-79
2022/05/22 08:00:42;;;;;;;1.45;1.20;;;;;;;;;;5073535;28;20036;-78
2022/05/22 08:03:13;;;;;;;2.97;1.42;;;;;;;;;;5044600;28;20045;-78
2022/05/22 08:05:49;;;;;;;3.78;1.33;;;;;;;;;;5058017;28;20078;-78
2022/05/22 08:08:17;;;;;;;0.82;0.80;;;;;;;;;;5045528;28;21015;-79
2022/05/22 08:10:59;;;;;;;1.38;1.05;;;;;;;;;;5008955;28;20055;-79
2022/05/22 08:13:37;;;;;;;5.05;2.60;;;;;;;;;;5032194;28;20059;-79
2022/05/22 08:16:06;;;;;;;1.15;1.00;;;;;;;;;;5069041;28;20048;-79
2022/05/22 08:18:37;;;;;;;2.00;0.90;;;;;;;;;;5018702;28;20053;-79
2022/05/22 08:21:04;;;;;;;3.00;0.98;;;;;;;;;;5050575;28;20072;-78
2022/05/22 08:23:36;;;;;;;3.35;0.93;;;;;;;;;;5049920;28;20136;-79
2022/05/22 08:26:20;;;;;;;1.38;0.90;;;;;;;;;;5036370;28;20052;-79
2022/05/22 08:28:47;;;;;;;1.50;0.80;;;;;;;;;;5034426;28;20052;-82
2022/05/22 08:31:15;;;;;;;1.58;0.90;;;;;;;;;;5050648;28;20047;-79
2022/05/22 08:33:49;;;;;;;0.88;0.88;;;;;;;;;;5047700;28;20064;-78
2022/05/22 08:36:17;;;;;;;0.90;0.90;;;;;;;;;;5073709;28;20123;-80
2022/05/22 08:38:44;;;;;;;1.17;0.90;;;;;;;;;;5071955;28;20043;-79
2022/05/22 08:41:15;;;;;;;1.70;1.30;;;;;;;;;;5053193;28;20090;-78
2022/05/22 08:43:49;;;;;;;2.25;1.00;;;;;;;;;;5077588;28;20048;-79
2022/05/22 08:46:36;;;;;;;1.67;0.80;;;;;;;;;;5076228;28;20078;-79
2022/05/22 08:49:15;;;;;;;2.33;1.20;;;;;;;;;;5078519;28;20085;-78
2022/05/22 08:51:44;;;;;;;2.53;0.90;;;;;;;;;;5045010;28;20104;-78
2022/05/22 08:54:23;;;;;;;2.70;0.80;;;;;;;;;;5051460;28;20494;-80
2022/05/22 08:59:39;;;;;;;1.13;1.00;;;;;;;;;;5051392;28;20045;-79
2022/05/22 09:02:22;;;;;;;1.00;0.90;;;;;;;;;;5028447;28;20072;-80
2022/05/22 09:05:02;;;;;;;2.20;0.70;;;;;;;;;;5073267;28;20406;-79
2022/05/22 09:07:29;;;;;;;2.42;1.00;;;;;;;;;;5060819;28;20040;-79
2022/05/22 09:10:18;;;;;;;2.60;0.73;;;;;;;;;;5053702;28;20691;-81
2022/05/22 09:12:55;;;;;;;4.43;0.70;;;;;;;;;;5040756;28;20127;-80
2022/05/22 09:15:49;;;;;;;3.15;1.10;;;;;;;;;;5070532;28;20107;-80
2022/05/22 09:18:43;;;;;;;2.08;0.90;;;;;;;;;;5059151;28;20114;-81
2022/05/22 09:21:31;;;;;;;1.63;0.73;;;;;;;;;;5038021;28;20056;-80
2022/05/22 09:24:06;;;;;;;2.03;0.80;;;;;;;;;;5050597;28;20048;-80
2022/05/22 09:26:33;;;;;;;1.40;0.75;;;;;;;;;;5063750;28;20128;-81
2022/05/22 09:29:37;;;;;;;4.72;0.80;;;;;;;;;;5065346;28;20413;-79
2022/05/22 09:32:24;;;;;;;1.23;0.88;;;;;;;;;;4988747;28;20050;-79
2022/05/22 09:35:06;;;;;;;2.67;0.88;;;;;;;;;;5056951;28;20137;-80
2022/05/22 09:37:52;;;;;;;2.08;0.90;;;;;;;;;;5064625;28;20044;-80
2022/05/22 09:40:24;;;;;;;3.55;0.93;;;;;;;;;;5024630;28;20175;-79
2022/05/22 09:42:51;;;;;;;;;;;;;;;;;;5051437;28;20044;-78
2022/05/22 09:45:29;;;;;;;1.30;0.82;;;;;;;;;;5064098;28;19994;-80
2022/05/22 09:47:57;;;;;;;2.65;0.90;;;;;;;;;;5045385;28;20037;-78
2022/05/22 09:50:44;;;;;;;0.77;0.70;;;;;;;;;;5067392;28;20040;-79
2022/05/22 09:53:17;;;;;;;1.05;0.80;;;;;;;;;;5064907;28;20032;-78
2022/05/22 09:55:51;;;;;;;1.45;0.85;;;;;;;;;;5065729;28;20045;-77
2022/05/22 09:58:31;;;;;;;0.88;0.75;;;;;;;;;;5071460;28;20048;-79
2022/05/22 10:01:05;;;;;;;2.25;0.90;;;;;;;;;;5070249;28;20351;-78
2022/05/22 10:03:37;;;;;;;2.13;1.00;;;;;;;;;;5073193;28;20052;-79
2022/05/22 10:06:16;;;;;;;0.93;0.80;;;;;;;;;;5068945;28;20041;-81
2022/05/22 10:08:43;;;;;;;0.95;0.73;;;;;;;;;;5054250;28;20064;-78
2022/05/22 10:11:25;;;;;;;0.82;0.70;;;;;;;;;;5065122;28;20212;-79
2022/05/22 10:14:00;;;;;;;2.90;0.90;;;;;;;;;;5047105;28;20044;-80
2022/05/22 10:16:41;;;;;;;0.95;0.75;;;;;;;;;;5046443;28;20113;-79
2022/05/22 10:19:27;;;;;;;2.10;0.90;;;;;;;;;;5034348;28;20040;-79
2022/05/22 10:21:54;;;;;;;0.70;0.70;;;;;;;;;;5072214;28;20052;-80
2022/05/22 10:24:40;;;;;;;1.45;0.80;;;;;;;;;;5072661;28;20041;-79
2022/05/22 10:27:13;;;;;;;2.50;0.80;;;;;;;;;;5067892;28;20049;-80
2022/05/22 10:29:47;;;;;;;1.88;0.90;;;;;;;;;;5035862;28;20535;-80
2022/05/22 10:32:20;;;;;;;1.45;0.90;;;;;;;;;;5075975;28;20044;-77
2022/05/22 10:34:54;;;;;;;1.80;0.77;;;;;;;;;;5067185;28;20069;-80
2022/05/22 10:37:27;;;;;;;1.60;0.75;;;;;;;;;;5049038;28;20040;-80
2022/05/22 10:39:57;;;;;;;1.35;0.80;;;;;;;;;;5077880;28;20206;-78
2022/05/22 10:42:45;;;;;;;1.13;0.60;;;;;;;;;;5056610;28;20053;-79
2022/05/22 10:45:21;;;;;;;4.25;0.80;;;;;;;;;;5054176;28;20052;-79
2022/05/22 10:47:49;;;;;;;0.75;0.60;;;;;;;;;;5057692;28;20513;-79
2022/05/22 10:50:20;;;;;;;0.80;0.77;;;;;;;;;;5082478;28;20127;-79
2022/05/22 10:52:48;;;;;;;1.15;0.73;;;;;;;;;;5083017;28;20837;-81
2022/05/22 10:55:32;;;;;;;0.80;0.80;;;;;;;;;;5061139;28;20047;-82
2022/05/22 10:58:01;;;;;;;1.75;0.90;;;;;;;;;;5080769;28;20079;-81
2022/05/22 11:00:28;;;;;;;0.90;0.77;;;;;;;;;;5073835;28;20072;-81
2022/05/22 11:02:56;;;;;;;1.73;0.90;;;;;;;;;;5072600;28;20032;-81
2022/05/22 11:05:28;;;;;;;2.58;0.95;;;;;;;;;;5079004;28;20119;-81
2022/05/22 11:07:57;;;;;;;1.33;0.75;;;;;;;;;;5061541;28;20048;-81
2022/05/22 11:10:24;;;;;;;2.05;1.23;;;;;;;;;;5077573;28;20123;-79
2022/05/22 11:12:59;;;;;;;1.20;0.70;;;;;;;;;;5058213;28;20036;-78
2022/05/22 11:15:32;;;;;;;2.08;0.80;;;;;;;;;;5073072;28;20411;-82
2022/05/22 11:18:09;;;;;;;2.30;2.10;;;;;;;;;;5039987;28;20063;-80
2022/05/22 11:20:39;;;;;;;1.35;0.85;;;;;;;;;;5078463;28;20124;-80
2022/05/22 11:23:11;;;;;;;0.95;0.60;;;;;;;;;;5051339;28;20055;-80
2022/05/22 11:25:42;;;;;;;1.73;0.60;;;;;;;;;;5051120;28;20119;-80
2022/05/22 11:28:28;;;;;;;0.80;0.80;;;;;;;;;;5034903;28;20644;-78
2022/05/22 11:31:01;;;;;;;2.38;1.15;;;;;;;;;;5067485;28;20086;-79
2022/05/22 11:33:29;;;;;;;1.85;0.70;;;;;;;;;;5067642;28;20044;-79
2022/05/22 11:35:59;;;;;;;2.50;0.80;;;;;;;;;;5066317;28;20130;-79
2022/05/22 11:38:45;;;;;;;2.00;0.93;;;;;;;;;;5068581;28;20064;-81
2022/05/22 11:41:16;;;;;;;1.13;0.80;;;;;;;;;;5055418;28;20058;-80
2022/05/22 11:43:51;;;;;;;2.00;1.00;;;;;;;;;;5051903;28;20044;-80
2022/05/22 11:46:23;;;;;;;2.33;0.90;;;;;;;;;;5071174;28;20044;-80
2022/05/22 11:49:07;;;;;;;3.20;0.80;;;;;;;;;;5073929;28;20066;-80
2022/05/22 11:51:50;;;;;;;1.33;0.70;;;;;;;;;;5067851;28;20224;-80
2022/05/22 11:54:31;;;;;;;1.67;0.70;;;;;;;;;;5049924;28;20048;-80
2022/05/22 11:56:59;;;;;;;1.17;0.80;;;;;;;;;;5049003;28;20421;-80
2022/05/22 11:59:47;;;;;;;3.80;0.90;;;;;;;;;;5048525;28;20074;-79
2022/05/22 12:02:27;;;;;;;1.02;0.80;;;;;;;;;;5049227;28;20056;-82
2022/05/22 12:05:10;;;;;;;3.45;0.75;;;;;;;;;;5069948;28;20072;-83
2022/05/22 12:07:43;;;;;;;1.13;0.70;;;;;;;;;;5075776;28;20625;-81
2022/05/22 12:10:31;;;;;;;3.58;0.95;;;;;;;;;;5047825;28;20072;-81
2022/05/22 12:12:59;;;;;;;1.15;0.60;;;;;;;;;;5073939;28;20466;-81
2022/05/22 12:15:42;;;;;;;1.65;0.95;;;;;;;;;;5051412;28;20049;-79
2022/05/22 12:18:24;;;;;;;1.23;0.90;;;;;;;;;;5049423;28;20037;-80
2022/05/22 12:20:57;;;;;;;1.45;0.70;;;;;;;;;;5051034;28;20748;-80
2022/05/22 12:23:27;;;;;;;0.85;0.70;;;;;;;;;;5074749;28;20452;-81
2022/05/22 12:25:56;;;;;;;0.88;0.65;;;;;;;;;;5071080;28;20068;-80
2022/05/22 12:28:28;;;;;;;2.30;0.88;;;;;;;;;;5055766;28;20047;-81
2022/05/22 12:30:57;;;;;;;1.65;1.00;;;;;;;;;;5071202;28;20111;-81
2022/05/22 12:33:27;;;;;;;1.02;0.80;;;;;;;;;;5065556;28;20036;-80
2022/05/22 12:35:55;;;;;;;3.08;0.95;;;;;;;;;;5049109;28;20040;-81
2022/05/22 12:38:23;;;;;;;1.67;0.68;;;;;;;;;;5067880;28;20032;-80
2022/05/22 12:40:53;;;;;;;2.00;0.90;;;;;;;;;;5070597;28;20044;-81
2022/05/22 12:43:22;;;;;;;0.70;0.70;;;;;;;;;;5075620;28;20041;-82
2022/05/22 12:45:54;;;;;;;2.25;0.90;;;;;;;;;;5076503;28;20044;-80
2022/05/22 12:48:33;;;;;;;3.60;0.80;;;;;;;;;;5081002;28;20040;-80
2022/05/22 12:51:08;;;;;;;0.75;0.75;;;;;;;;;;5073298;28;20561;-80
2022/05/22 12:53:36;;;;;;;1.45;0.63;;;;;;;;;;5071783;28;20043;-86
2022/05/22 12:56:22;;;;;;;1.20;1.10;;;;;;;;;;5068250;28;20045;-80
2022/05/22 12:59:14;;;;;;;3.20;0.98;;;;;;;;;;5045465;28;20572;-80
2022/05/22 13:01:45;;;;;;;1.55;0.80;;;;;;;;;;5080244;28;20048;-79
2022/05/22 13:04:15;;;;;;;1.10;0.80;;;;;;;;;;5056399;28;20067;-81
2022/05/22 13:06:50;;;;;;;2.58;0.68;;;;;;;;;;5074557;28;20101;-80
2022/05/22 13:09:24;;;;;;;1.35;0.75;;;;;;;;;;5075996;28;20044;-80
2022/05/22 13:11:54;;;;;;;0.88;0.73;;;;;;;;;;5033217;28;20036;-80
2022/05/22 13:14:36;;;;;;;1.48;0.73;;;;;;;;;;5065836;28;20047;-79
2022/05/22 13:17:05;;;;;;;1.80;0.70;;;;;;;;;;5041242;28;20044;-78
2022/05/22 13:19:47;;;;;;;1.70;0.88;;;;;;;;;;5066312;28;20444;-82
2022/05/22 13:22:46;;;;;;;1.35;0.60;;;;;;;;;;5037215;28;20098;-81
2022/05/22 13:25:29;;;;;;;3.63;1.00;;;;;;;;;;5063006;28;20113;-81
2022/05/22 13:27:56;;;;;;;0.77;0.77;;;;;;;;;;5065565;28;20600;-80
2022/05/22 13:30:28;;;;;;;2.20;1.00;;;;;;;;;;5065534;28;20045;-80
2022/05/22 13:32:58;;;;;;;1.55;0.80;;;;;;;;;;5066551;28;20190;-80
2022/05/22 13:35:31;;;;;;;0.88;0.70;;;;;;;;;;5065099;28;20036;-80
2022/05/22 13:37:58;;;;;;;2.83;0.65;;;;;;;;;;5050983;28;20036;-79
2022/05/22 13:40:33;;;;;;;1.50;0.75;;;;;;;;;;5066578;28;20052;-81
2022/05/22 13:43:09;;;;;;;1.45;0.70;;;;;;;;;;5064662;28;20044;-79
2022/05/22 13:45:44;;;;;;;2.45;0.80;;;;;;;;;;5065662;28;20043;-79
2022/05/22 13:48:36;;;;;;;1.27;0.70;;;;;;;;;;5065610;28;20413;-82
2022/05/22 13:54:15;;;;;;;2.22;0.77;;;;;;;;;;5046526;28;20040;-81
2022/05/22 13:56:51;;;;;;;1.85;0.90;;;;;;;;;;5063886;28;20108;-79
2022/05/22 13:59:27;;;;;;;1.65;0.90;;;;;;;;;;5067185;28;20029;-80
2022/05/22 14:02:01;;;;;;;2.97;1.00;;;;;;;;;;5031255;28;20151;-80
2022/05/22 14:04:33;;;;;;;1.45;0.80;;;;;;;;;;5047653;28;20478;-80
2022/05/22 14:07:06;;;;;;;1.17;1.00;;;;;;;;;;5065767;28;20054;-80
2022/05/22 14:09:35;;;;;;;1.58;0.85;;;;;;;;;;5066489;28;20040;-81
2022/05/22 14:12:04;;;;;;;1.27;0.88;;;;;;;;;;5066953;28;20033;-81
2022/05/22 14:14:36;;;;;;;1.10;0.90;;;;;;;;;;5065386;28;20033;-81
2022/05/22 14:17:08;;;;;;;1.60;0.80;;;;;;;;;;5062163;28;20395;-82
2022/05/22 14:22:27;;;;;;;1.42;0.80;;;;;;;;;;4984679;28;20081;-81
2022/05/22 14:24:58;;;;;;;1.10;0.60;;;;;;;;;;4997326;28;20541;-81
2022/05/22 14:27:46;;;;;;;2.17;0.85;;;;;;;;;;5010547;28;20092;-81
2022/05/22 14:30:21;;;;;;;2.40;0.80;;;;;;;;;;5030398;28;20209;-80
2022/05/22 14:32:56;;;;;;;5.72;1.08;;;;;;;;;;5032119;28;20044;-80
2022/05/22 14:35:23;;;;;;;1.13;0.80;;;;;;;;;;5030994;28;20047;-79
2022/05/22 14:37:51;;;;;;;3.33;0.80;;;;;;;;;;5023389;28;20509;-81
2022/05/22 14:40:23;;;;;;;3.88;0.90;;;;;;;;;;5015843;28;20065;-81
2022/05/22 14:42:53;;;;;;;1.27;0.70;;;;;;;;;;5019860;28;20088;-81
2022/05/22 14:45:24;;;;;;;3.95;0.98;;;;;;;;;;5013718;28;20064;-80
2022/05/22 14:48:12;;;;;;;1.63;0.80;;;;;;;;;;5003624;28;20056;-81
2022/05/22 14:50:48;;;;;;;0.98;0.73;;;;;;;;;;4985522;28;20448;-82
2022/05/22 14:53:18;;;;;;;1.15;0.70;;;;;;;;;;5019699;28;20417;-80
2022/05/22 14:55:47;;;;;;;1.65;0.85;;;;;;;;;;5000880;28;20120;-79
2022/05/22 14:58:26;;;;;;;1.48;0.80;;;;;;;;;;5018173;28;20096;-81
2022/05/22 15:00:56;;;;;;;1.60;1.25;;;;;;;;;;5016854;28;21138;-81
2022/05/22 15:03:24;;;;;;;2.50;0.80;;;;;;;;;;4993138;28;20111;-82
2022/05/22 15:05:53;;;;;;;1.60;0.77;;;;;;;;;;5020488;28;20100;-81
2022/05/22 15:08:28;;;;;;;3.85;1.27;;;;;;;;;;5018344;28;20045;-81
2022/05/22 15:11:20;;;;;;;1.42;0.80;;;;;;;;;;5015174;28;20046;-82
2022/05/22 15:13:56;;;;;;;0.98;0.80;;;;;;;;;;4999727;28;20420;-82
2022/05/22 15:16:26;;;;;;;1.05;0.90;;;;;;;;;;5019874;28;20471;-81
2022/05/22 15:21:43;;;;;;;3.83;0.90;;;;;;;;;;5017795;28;20049;-80
2022/05/22 15:27:05;;;;;;;3.55;0.90;;;;;;;;;;5017603;28;20049;-81
2022/05/22 15:29:33;;;;;;;3.92;0.95;;;;;;;;;;5019449;28;20054;-80
2022/05/22 15:32:08;;;;;;;1.20;0.80;;;;;;;;;;5021179;28;20077;-80
2022/05/22 15:34:35;;;;;;;2.55;1.00;;;;;;;;;;5012419;28;20072;-80
2022/05/22 15:37:30;;;;;;;2.20;0.80;;;;;;;;;;4999864;28;20049;-81
2022/05/22 15:40:05;;;;;;;2.15;0.82;;;;;;;;;;4995234;28;20060;-80
2022/05/22 15:42:41;;;;;;;1.63;0.90;;;;;;;;;;5015991;28;20052;-79
2022/05/22 15:45:13;;;;;;;1.58;1.10;;;;;;;;;;5000643;28;20453;-79
2022/05/22 15:47:56;;;;;;;2.15;0.82;;;;;;;;;;4998777;28;20405;-80
2022/05/22 15:53:11;;;;;;;1.27;0.93;;;;;;;;;;5018761;28;20041;-80
2022/05/22 15:55:59;;;;;;;1.58;0.90;;;;;;;;;;4988631;28;20097;-81
2022/05/22 15:58:28;;;;;;;2.15;0.73;;;;;;;;;;5012795;28;20089;-79
2022/05/22 16:01:04;;;;;;;2.13;0.80;;;;;;;;;;5020302;28;20473;-80
2022/05/22 16:03:33;;;;;;;2.03;1.00;;;;;;;;;;5003394;28;20063;-81
2022/05/22 16:06:01;;;;;;;1.50;0.98;;;;;;;;;;5008881;28;20136;-80
2022/05/22 16:08:28;;;;;;;4.43;0.90;;;;;;;;;;5027755;28;20119;-79
2022/05/22 16:10:56;;;;;;;0.88;0.80;;;;;;;;;;5020269;28;20053;-80
2022/05/22 16:13:24;;;;;;;0.82;0.70;;;;;;;;;;5018470;28;20076;-79
2022/05/22 16:15:51;;;;;;;1.70;0.90;;;;;;;;;;5017431;28;20041;-78
2022/05/22 16:18:19;;;;;;;1.73;0.90;;;;;;;;;;5015245;28;20084;-79